Etusivu
METAR-TAF:

METAR-TAF

Lentoasemat :

Wittering, Englanti

Leveyspiiri: 52-37N, Pituuspiiri: 000-28W, korkeus merenpinnasta: 84 m

Tämänhetkinen sää

Tämä raportti tehtiin 1 tunti ja 13 minuuttia sitten, kello 20.50 UTC
Tuuli 7 kn lännestä/luoteesta
Lämpötila 1°C
Kosteus 86%
Ilmanpaine 1016 hPa
Näkyvyys 10 km tai enemmän

METAR: EGXT 182050Z AUTO 29007KT 9999 NCD 01/M01 Q1016

Aika: 22:03 (22:03 UTC)

Sääennuste

Tämä raportti tehtiin 8 tuntia ja 14 minuuttia sitten, kello 13.49 UTC
Ennuste voimassa 18. päivästä klo 15 UTC - 18. päivään klo 18 UTC
Tuuli 12 kn pohjoisen/luoteesta
Näkyvyys 10 km tai enemmän
Muutamia pilviä 1500 ft:n korkeudessa

TAF: EGXT 181349Z 1815/1818 33012KT 9999 FEW015

Säähavainnot ja -ennusteet yli 4000 lentoasemalta (METAR- ja TAF-raportit).

Käytössä olevat sääasemat on merkitty karttaan keltaisilla ja punaisilla pisteillä.

Aseta hiiri pisteen päälle nähdäksesi sääaseman nimen.

Klikkaa sitten nähdäksesi säähavainnot ja -ennusteet.

Kartan vaihtaminen: klikkaa mustalla rastilla varustettuja vihreitä pisteitä, niin voit zoomata sisään; viivalla varustettua vihreää pistettä, niin voit zoomata ulos tai vihreitä nuolia, niin pääset viereisille kartoille.


METAR-TAF: